Time;durP1;ratioP1;P1;durP2;ratioP2;P2;SDS_P1;SDS_P2;PMS_P1;PMS_P2;Temp;Humidity;BMP_temperature;BMP_pressure;BME280_temperature;BME280_humidity;BME280_pressure;Samples;Min_cycle;Max_cycle;Signal;HPM_P1;HPM_P2
2022/07/23 00:01:30;;;;;;;5.43;3.30;;;26.30;90.70;;;;;;5032619;28;20446;-74
2022/07/23 00:03:57;;;;;;;6.50;3.40;;;26.20;90.80;;;;;;5032439;28;20494;-74
2022/07/23 00:06:25;;;;;;;4.13;2.90;;;26.10;90.60;;;;;;5031149;28;20461;-73
2022/07/23 00:08:53;;;;;;;10.03;3.03;;;26.00;90.40;;;;;;5032434;28;20459;-73
2022/07/23 00:11:21;;;;;;;5.37;3.23;;;26.00;90.50;;;;;;5031310;28;20450;-74
2022/07/23 00:13:49;;;;;;;6.43;3.60;;;26.00;90.30;;;;;;5032225;28;20455;-74
2022/07/23 00:16:17;;;;;;;5.60;2.87;;;26.00;90.50;;;;;;5030337;28;20489;-73
2022/07/23 00:18:45;;;;;;;4.47;2.80;;;26.00;90.60;;;;;;5032315;28;20928;-73
2022/07/23 00:21:12;;;;;;;7.50;3.20;;;26.00;90.10;;;;;;5032362;28;20455;-72
2022/07/23 00:23:40;;;;;;;5.70;3.20;;;26.00;90.10;;;;;;5032362;28;20446;-74
2022/07/23 00:26:07;;;;;;;4.67;2.93;;;25.90;89.20;;;;;;5032312;28;20486;-73
2022/07/23 00:28:34;;;;;;;6.07;3.17;;;26.00;88.90;;;;;;5032152;28;20538;-74
2022/07/23 00:31:02;;;;;;;5.47;3.07;;;26.00;89.00;;;;;;5032185;28;20458;-73
2022/07/23 00:33:30;;;;;;;4.53;2.90;;;25.90;88.50;;;;;;5032127;28;20455;-72
2022/07/23 00:35:59;;;;;;;3.80;2.80;;;26.00;88.40;;;;;;5032160;28;20489;-74
2022/07/23 00:38:26;;;;;;;3.67;2.80;;;26.00;87.80;;;;;;5032337;28;20458;-73
2022/07/23 00:40:53;;;;;;;10.10;3.90;;;26.00;88.20;;;;;;5032151;28;20957;-74
2022/07/23 00:43:21;;;;;;;5.03;3.23;;;26.00;87.90;;;;;;5032155;28;20458;-72
2022/07/23 00:45:49;;;;;;;6.10;3.00;;;25.90;88.40;;;;;;5031891;28;20948;-73
2022/07/23 00:48:16;;;;;;;5.00;3.07;;;26.00;88.80;;;;;;5030824;28;20481;-74
2022/07/23 00:50:44;;;;;;;5.13;3.27;;;26.00;89.50;;;;;;5030820;28;20454;-74
2022/07/23 00:53:13;;;;;;;4.60;2.80;;;25.80;89.40;;;;;;5031895;28;20473;-73
2022/07/23 00:55:40;;;;;;;6.23;3.47;;;25.70;89.90;;;;;;5031828;28;20474;-74
2022/07/23 00:58:08;;;;;;;5.87;3.20;;;25.70;90.20;;;;;;5031786;28;20478;-73
2022/07/23 01:00:36;;;;;;;6.00;3.10;;;25.70;90.50;;;;;;5031629;28;20532;-73
2022/07/23 01:03:03;;;;;;;4.20;3.10;;;25.70;90.70;;;;;;5031853;28;20501;-73
2022/07/23 01:05:30;;;;;;;4.97;2.70;;;25.60;92.70;;;;;;5031802;28;20455;-74
2022/07/23 01:07:57;;;;;;;5.50;3.07;;;25.50;91.60;;;;;;5031503;28;20846;-72
2022/07/23 01:10:33;;;;;;;4.43;3.03;;;25.50;92.70;;;;;;5031594;28;20451;-72
2022/07/23 01:13:01;;;;;;;4.20;2.63;;;25.40;91.10;;;;;;5030632;28;20446;-73
2022/07/23 01:15:29;;;;;;;3.93;2.80;;;25.40;91.60;;;;;;5031504;28;21043;-74
2022/07/23 01:17:56;;;;;;;3.90;3.00;;;25.40;92.30;;;;;;5031858;28;20512;-74
2022/07/23 01:20:23;;;;;;;3.63;2.47;;;25.30;90.90;;;;;;5031565;28;20973;-73
2022/07/23 01:22:52;;;;;;;4.17;2.53;;;25.30;89.80;;;;;;5031721;28;20520;-73
2022/07/23 01:25:21;;;;;;;4.67;2.23;;;25.30;89.30;;;;;;5031608;28;20455;-73
2022/07/23 01:27:49;;;;;;;4.73;2.63;;;25.30;88.70;;;;;;5031658;28;20454;-74
2022/07/23 01:30:17;;;;;;;3.70;2.67;;;25.30;88.30;;;;;;5031630;28;20461;-73
2022/07/23 01:32:44;;;;;;;4.67;2.67;;;25.30;88.70;;;;;;5031557;28;20482;-73
2022/07/23 01:35:12;;;;;;;4.87;2.40;;;25.20;88.70;;;;;;5031541;28;20798;-74
2022/07/23 01:37:39;;;;;;;4.20;2.50;;;25.20;89.00;;;;;;5031554;28;20450;-72
2022/07/23 01:40:08;;;;;;;3.70;2.27;;;25.10;89.00;;;;;;5031524;28;20451;-72
2022/07/23 01:42:36;;;;;;;4.27;2.97;;;25.20;89.20;;;;;;5031707;28;20509;-73
2022/07/23 01:45:04;;;;;;;5.00;2.77;;;25.20;88.70;;;;;;5031599;28;20791;-72
2022/07/23 01:47:31;;;;;;;4.20;2.50;;;25.20;89.00;;;;;;5031312;28;21074;-74
2022/07/23 01:50:00;;;;;;;3.53;2.20;;;25.20;88.90;;;;;;5031444;28;20505;-73
2022/07/23 01:52:27;;;;;;;3.47;2.50;;;25.20;89.00;;;;;;5031384;28;20482;-73
2022/07/23 01:54:54;;;;;;;4.30;2.57;;;25.20;89.30;;;;;;5031569;28;20983;-74
2022/07/23 01:57:22;;;;;;;5.00;2.93;;;25.20;89.50;;;;;;5031232;28;20967;-73
2022/07/23 01:59:49;;;;;;;4.13;2.60;;;25.20;89.40;;;;;;5033377;28;20461;-74
2022/07/23 02:02:17;;;;;;;4.20;2.77;;;25.20;89.60;;;;;;5034671;28;20462;-73
2022/07/23 02:04:44;;;;;;;3.37;2.70;;;25.10;90.40;;;;;;5034922;28;20462;-73
2022/07/23 02:07:11;;;;;;;3.20;2.13;;;25.10;90.90;;;;;;5034719;28;20454;-73
2022/07/23 02:09:38;;;;;;;3.33;2.50;;;25.10;91.50;;;;;;5034605;28;20454;-73
2022/07/23 02:12:06;;;;;;;3.50;2.47;;;25.00;91.60;;;;;;5034614;28;20462;-74
2022/07/23 02:14:34;;;;;;;4.27;2.60;;;25.00;91.40;;;;;;5031428;28;20451;-73
2022/07/23 02:17:01;;;;;;;3.80;2.53;;;25.00;91.60;;;;;;5034373;28;20486;-74
2022/07/23 02:19:29;;;;;;;4.30;2.70;;;25.00;92.00;;;;;;5034485;28;20479;-73
2022/07/23 02:21:56;;;;;;;4.10;2.77;;;24.90;91.70;;;;;;5034548;28;20451;-73
2022/07/23 02:24:23;;;;;;;4.30;2.90;;;24.80;92.00;;;;;;5034449;28;20473;-74
2022/07/23 02:26:50;;;;;;;5.50;2.90;;;24.80;92.20;;;;;;5034328;28;20478;-74
2022/07/23 02:29:20;;;;;;;3.63;2.40;;;24.80;92.30;;;;;;5034381;28;20480;-72
2022/07/23 02:31:49;;;;;;;4.77;2.97;;;24.80;92.80;;;;;;5034026;28;20851;-72
2022/07/23 02:34:16;;;;;;;3.30;2.37;;;24.80;92.00;;;;;;5034346;28;20454;-73
2022/07/23 02:36:44;;;;;;;3.60;2.60;;;24.90;92.50;;;;;;5034152;28;20486;-73
2022/07/23 02:39:11;;;;;;;4.73;2.50;;;24.80;92.60;;;;;;5034213;28;20467;-73
2022/07/23 02:41:38;;;;;;;4.50;2.97;;;24.70;92.80;;;;;;5034227;28;20530;-74
2022/07/23 02:44:05;;;;;;;4.20;2.67;;;24.70;93.00;;;;;;5034322;28;20535;-72
2022/07/23 02:46:33;;;;;;;5.13;2.67;;;24.60;93.00;;;;;;5034082;28;20457;-72
2022/07/23 02:49:01;;;;;;;4.30;2.77;;;24.70;93.10;;;;;;5032981;28;20470;-73
2022/07/23 02:51:28;;;;;;;5.03;2.60;;;24.60;93.30;;;;;;5034149;28;20462;-74
2022/07/23 02:53:55;;;;;;;4.67;2.50;;;24.70;93.90;;;;;;5034204;28;20459;-72
2022/07/23 02:56:23;;;;;;;4.97;2.90;;;24.70;93.50;;;;;;5034114;28;20544;-72
2022/07/23 02:58:50;;;;;;;5.37;2.90;;;24.60;93.70;;;;;;5033778;28;20927;-74
2022/07/23 03:01:17;;;;;;;4.63;2.70;;;24.50;94.00;;;;;;5033644;28;20465;-73
2022/07/23 03:03:45;;;;;;;4.20;2.30;;;24.40;94.40;;;;;;5033870;28;20459;-74
2022/07/23 03:06:14;;;;;;;5.30;2.87;;;24.40;94.40;;;;;;5033643;28;20458;-72
2022/07/23 03:08:42;;;;;;;3.20;2.40;;;24.40;94.60;;;;;;5033629;28;20469;-72
2022/07/23 03:11:10;;;;;;;4.57;2.70;;;24.40;94.50;;;;;;5033393;28;20467;-74
2022/07/23 03:13:38;;;;;;;4.27;2.80;;;24.30;94.60;;;;;;5033496;28;20454;-74
2022/07/23 03:16:06;;;;;;;5.27;2.87;;;24.30;94.90;;;;;;5033267;28;20490;-72
2022/07/23 03:18:34;;;;;;;3.83;2.30;;;24.30;95.20;;;;;;5033339;28;20525;-74
2022/07/23 03:21:01;;;;;;;4.60;3.03;;;24.20;95.30;;;;;;5033406;28;20458;-72
2022/07/23 03:23:30;;;;;;;4.67;2.73;;;24.20;95.30;;;;;;5032174;28;20459;-72
2022/07/23 03:25:57;;;;;;;5.87;2.57;;;24.20;95.60;;;;;;5033173;28;20455;-74
2022/07/23 03:28:24;;;;;;;4.53;2.90;;;24.30;95.40;;;;;;5033354;28;20498;-74
2022/07/23 03:30:51;;;;;;;4.23;2.80;;;24.20;95.00;;;;;;5033030;28;20978;-72
2022/07/23 03:33:20;;;;;;;8.50;3.03;;;24.30;95.20;;;;;;5033063;28;20466;-72
2022/07/23 03:35:48;;;;;;;3.93;2.73;;;24.30;95.60;;;;;;5031802;28;20475;-74
2022/07/23 03:38:16;;;;;;;4.47;3.00;;;24.10;96.10;;;;;;5033118;28;20833;-72
2022/07/23 03:40:45;;;;;;;4.63;2.73;;;24.00;97.40;;;;;;5033058;28;20462;-73
2022/07/23 03:43:12;;;;;;;3.70;2.30;;;23.70;97.80;;;;;;5033146;28;20967;-73
2022/07/23 03:45:39;;;;;;;6.73;3.03;;;23.60;97.80;;;;;;5032591;28;20466;-74
2022/07/23 03:48:08;;;;;;;4.83;2.80;;;23.60;98.00;;;;;;5033137;28;20465;-74
2022/07/23 03:50:37;;;;;;;6.00;2.77;;;23.40;98.00;;;;;;5032961;28;20831;-72
2022/07/23 03:53:04;;;;;;;4.80;3.00;;;23.40;98.00;;;;;;5033004;28;20466;-73
2022/07/23 03:55:31;;;;;;;4.87;2.80;;;23.30;98.00;;;;;;5032857;28;20849;-72
2022/07/23 03:57:59;;;;;;;4.43;2.73;;;23.30;98.00;;;;;;5033000;28;20467;-72
2022/07/23 04:00:26;;;;;;;3.80;2.47;;;23.30;98.00;;;;;;5032348;28;20458;-74
2022/07/23 04:02:55;;;;;;;3.80;2.60;;;23.30;98.00;;;;;;5032782;28;20466;-74
2022/07/23 04:05:23;;;;;;;3.87;2.93;;;23.20;98.00;;;;;;5032608;28;20466;-75
2022/07/23 04:07:50;;;;;;;5.20;3.03;;;23.00;98.00;;;;;;5032348;28;20972;-74
2022/07/23 04:10:17;;;;;;;4.13;2.83;;;23.00;98.00;;;;;;5032435;28;20454;-72
2022/07/23 04:12:44;;;;;;;5.00;2.60;;;22.90;98.00;;;;;;5032343;28;20454;-71
2022/07/23 04:15:13;;;;;;;3.87;2.77;;;22.90;98.00;;;;;;5032490;28;20459;-72
2022/07/23 04:17:40;;;;;;;4.50;2.90;;;22.80;98.00;;;;;;5032321;28;20513;-73
2022/07/23 04:20:08;;;;;;;3.80;2.33;;;22.70;98.00;;;;;;5032261;28;20855;-72
2022/07/23 04:22:35;;;;;;;3.00;2.07;;;22.60;98.00;;;;;;5031837;28;20510;-72
2022/07/23 04:25:03;;;;;;;3.57;2.47;;;22.50;98.00;;;;;;5032349;28;20516;-72
2022/07/23 04:27:33;;;;;;;3.53;2.33;;;22.50;98.00;;;;;;5032192;28;20466;-74
2022/07/23 04:30:00;;;;;;;3.97;2.70;;;22.60;98.00;;;;;;5032387;28;20529;-74
2022/07/23 04:32:28;;;;;;;4.10;2.50;;;22.50;98.00;;;;;;5032040;28;20470;-74
2022/07/23 04:34:55;;;;;;;4.30;3.13;;;22.60;98.00;;;;;;5032396;28;20805;-72
2022/07/23 04:37:23;;;;;;;3.83;2.70;;;22.80;98.00;;;;;;5032096;28;20494;-74
2022/07/23 04:39:50;;;;;;;5.13;2.80;;;23.00;98.00;;;;;;5032127;28;20455;-73
2022/07/23 04:42:17;;;;;;;5.97;3.40;;;23.10;98.00;;;;;;5032207;28;20513;-72
2022/07/23 04:44:45;;;;;;;4.93;2.70;;;23.30;98.00;;;;;;5032033;28;20461;-73
2022/07/23 04:47:12;;;;;;;5.03;3.17;;;23.40;98.00;;;;;;5031997;28;20478;-73
2022/07/23 04:49:41;;;;;;;3.80;2.67;;;23.50;98.00;;;;;;5032114;28;20465;-72
2022/07/23 04:52:08;;;;;;;4.10;2.50;;;23.70;98.00;;;;;;5031904;28;20459;-72
2022/07/23 04:54:35;;;;;;;4.07;2.70;;;23.70;98.00;;;;;;5032021;28;20841;-73
2022/07/23 04:57:02;;;;;;;5.50;3.20;;;23.70;98.00;;;;;;5031749;28;20542;-72
2022/07/23 04:59:29;;;;;;;4.63;2.70;;;23.80;98.00;;;;;;5031757;28;20470;-73
2022/07/23 05:01:59;;;;;;;5.30;3.03;;;23.80;98.00;;;;;;5031973;28;20455;-72
2022/07/23 05:04:26;;;;;;;4.67;2.90;;;23.80;98.00;;;;;;5031801;28;20463;-72
2022/07/23 05:06:55;;;;;;;5.57;2.93;;;23.80;98.00;;;;;;5031708;28;20455;-74
2022/07/23 05:09:22;;;;;;;5.97;2.87;;;23.80;98.00;;;;;;5031594;28;20459;-72
2022/07/23 05:11:50;;;;;;;5.60;2.77;;;23.80;98.00;;;;;;5031616;28;21070;-73
2022/07/23 05:14:17;;;;;;;5.07;3.00;;;23.90;98.00;;;;;;5030439;28;20451;-73
2022/07/23 05:16:47;;;;;;;5.07;3.07;;;23.80;98.00;;;;;;5031723;28;20482;-73
2022/07/23 05:19:14;;;;;;;4.83;3.00;;;23.90;98.00;;;;;;5031724;28;20463;-72
2022/07/23 05:21:41;;;;;;;4.07;3.00;;;23.80;98.00;;;;;;5030455;28;20982;-74
2022/07/23 05:24:11;;;;;;;7.00;3.43;;;23.90;98.00;;;;;;5031904;28;20450;-74
2022/07/23 05:26:38;;;;;;;4.80;3.00;;;24.00;98.00;;;;;;5030221;28;20454;-72
2022/07/23 05:29:06;;;;;;;4.67;3.20;;;24.00;98.00;;;;;;5031835;28;20454;-72
2022/07/23 05:31:33;;;;;;;5.00;2.90;;;24.10;98.00;;;;;;5031551;28;20465;-73
2022/07/23 05:34:00;;;;;;;5.37;3.03;;;24.10;98.00;;;;;;5032802;28;20841;-74
2022/07/23 05:36:27;;;;;;;6.00;3.40;;;24.20;98.00;;;;;;5035496;28;20540;-74
2022/07/23 05:38:55;;;;;;;4.77;2.80;;;24.20;98.00;;;;;;5035476;28;20451;-74
2022/07/23 05:41:23;;;;;;;5.97;3.17;;;24.20;98.00;;;;;;5035408;28;20462;-74
2022/07/23 05:43:51;;;;;;;4.97;3.20;;;24.20;98.00;;;;;;5035307;28;20454;-73
2022/07/23 05:46:18;;;;;;;5.53;3.50;;;24.30;98.00;;;;;;5035391;28;20454;-75
2022/07/23 05:48:49;;;;;;;6.50;3.37;;;24.30;98.00;;;;;;5034517;28;20463;-72
2022/07/23 05:51:20;;;;;;;3.80;2.73;;;24.20;98.00;;;;;;5035226;28;20454;-74
2022/07/23 05:53:48;;;;;;;4.73;3.23;;;24.20;98.00;;;;;;5034935;28;20466;-73
2022/07/23 05:56:15;;;;;;;5.33;3.43;;;24.40;98.00;;;;;;5034306;28;20608;-73
2022/07/23 05:58:43;;;;;;;5.60;3.07;;;24.50;98.00;;;;;;5034072;28;20458;-72
2022/07/23 06:01:11;;;;;;;5.40;2.80;;;24.60;98.00;;;;;;5032807;28;20509;-74
2022/07/23 06:03:38;;;;;;;4.97;2.97;;;24.50;98.00;;;;;;5034022;28;20516;-74
2022/07/23 06:06:06;;;;;;;5.10;3.50;;;24.50;98.00;;;;;;5034048;28;20717;-72
2022/07/23 06:08:33;;;;;;;9.50;2.90;;;24.30;98.00;;;;;;5033916;28;20466;-72
2022/07/23 06:11:01;;;;;;;6.70;2.97;;;24.30;98.00;;;;;;5033884;28;21014;-76
2022/07/23 06:13:28;;;;;;;6.70;3.40;;;24.30;98.00;;;;;;5032729;28;20450;-76
2022/07/23 06:15:57;;;;;;;6.17;3.23;;;24.30;98.00;;;;;;5032563;28;20509;-76
2022/07/23 06:18:24;;;;;;;6.40;3.67;;;24.30;98.00;;;;;;5033776;28;20458;-76
2022/07/23 06:20:52;;;;;;;7.17;3.70;;;24.50;98.00;;;;;;5033696;28;20921;-76
2022/07/23 06:23:19;;;;;;;5.00;3.10;;;24.60;98.00;;;;;;5033825;28;20459;-76
2022/07/23 06:25:46;;;;;;;5.20;3.10;;;24.70;98.00;;;;;;5033539;28;20466;-76
2022/07/23 06:28:13;;;;;;;4.40;2.80;;;24.70;98.00;;;;;;5033141;28;20450;-69
2022/07/23 06:30:40;;;;;;;6.10;3.27;;;24.80;98.00;;;;;;5033739;28;20810;-69
2022/07/23 06:33:09;;;;;;;6.07;2.83;;;25.10;98.00;;;;;;5033653;28;20852;-70
2022/07/23 06:35:37;;;;;;;5.70;3.20;;;25.50;98.00;;;;;;5033515;28;20454;-69
2022/07/23 06:38:04;;;;;;;6.20;3.07;;;25.70;98.00;;;;;;5033375;28;20526;-70
2022/07/23 06:40:31;;;;;;;4.60;3.10;;;25.70;98.00;;;;;;5033348;28;20948;-70
2022/07/23 06:42:58;;;;;;;8.10;3.27;;;25.70;98.00;;;;;;5032303;28;20456;-70
2022/07/23 06:45:26;;;;;;;5.63;3.50;;;25.80;98.00;;;;;;5032869;28;20457;-69
2022/07/23 06:47:53;;;;;;;4.00;3.00;;;26.00;98.00;;;;;;5033343;28;20458;-69
2022/07/23 06:50:21;;;;;;;5.30;3.60;;;26.20;97.70;;;;;;5033328;28;20479;-69
2022/07/23 06:52:50;;;;;;;6.80;3.77;;;26.30;97.00;;;;;;5032750;28;20473;-69
2022/07/23 06:55:18;;;;;;;4.50;3.10;;;26.20;97.40;;;;;;5032844;28;20455;-69
2022/07/23 06:57:45;;;;;;;5.23;3.60;;;26.20;97.50;;;;;;5033103;28;20913;-70
2022/07/23 07:00:13;;;;;;;4.97;3.10;;;26.00;97.60;;;;;;5032002;28;20869;-69
2022/07/23 07:02:40;;;;;;;6.60;3.80;;;25.70;98.00;;;;;;5032943;28;20466;-69
2022/07/23 07:05:08;;;;;;;5.10;3.20;;;25.50;98.00;;;;;;5033111;28;20458;-69
2022/07/23 07:07:36;;;;;;;5.33;3.27;;;25.50;98.00;;;;;;5031642;28;20458;-69
2022/07/23 07:10:05;;;;;;;6.30;3.50;;;25.50;98.00;;;;;;5033005;28;20450;-69
2022/07/23 07:12:32;;;;;;;6.57;3.30;;;25.70;98.00;;;;;;5032715;28;20459;-69
2022/07/23 07:15:00;;;;;;;4.97;3.07;;;25.80;98.00;;;;;;5032690;28;20454;-69
2022/07/23 07:17:27;;;;;;;4.97;3.23;;;26.00;98.00;;;;;;5032158;28;20487;-69
2022/07/23 07:19:54;;;;;;;3.67;2.50;;;26.10;98.00;;;;;;5021585;28;20467;-69
2022/07/23 07:22:21;;;;;;;7.83;3.73;;;26.20;98.00;;;;;;5010330;28;20832;-69
2022/07/23 07:24:50;;;;;;;4.67;3.03;;;26.10;97.60;;;;;;5011598;28;20490;-69
2022/07/23 07:27:17;;;;;;;7.97;3.70;;;26.20;97.70;;;;;;5011720;28;20546;-69
2022/07/23 07:29:45;;;;;;;4.10;2.70;;;26.30;97.20;;;;;;5012656;28;20543;-69
2022/07/23 07:32:14;;;;;;;4.17;3.10;;;26.20;96.90;;;;;;5012663;28;20456;-69
2022/07/23 07:34:41;;;;;;;4.63;3.17;;;26.30;96.90;;;;;;5012531;28;20538;-69
2022/07/23 07:37:09;;;;;;;5.60;3.40;;;26.30;94.80;;;;;;5011293;28;20483;-74
2022/07/23 07:39:36;;;;;;;6.10;3.13;;;26.10;94.10;;;;;;5012284;28;20471;-74
2022/07/23 07:42:04;;;;;;;4.83;3.37;;;25.90;94.60;;;;;;5012156;28;20455;-74
2022/07/23 07:44:32;;;;;;;6.90;3.40;;;25.80;95.10;;;;;;5012201;28;20459;-74
2022/07/23 07:49:45;;;;;;;5.70;3.43;;;25.60;95.60;;;;;;5012336;28;20467;-76
2022/07/23 07:52:12;;;;;;;6.90;3.40;;;25.50;95.70;;;;;;5012189;28;20459;-76
2022/07/23 07:54:39;;;;;;;6.17;3.47;;;25.50;96.50;;;;;;5012297;28;20470;-75
2022/07/23 07:57:08;;;;;;;5.13;3.23;;;25.40;96.50;;;;;;5011828;28;20487;-72
2022/07/23 07:59:35;;;;;;;5.13;3.20;;;25.40;97.40;;;;;;5011673;28;20463;-77
2022/07/23 08:02:03;;;;;;;8.30;3.20;;;25.50;96.80;;;;;;5012060;28;20957;-77
2022/07/23 08:04:38;;;;;;;5.70;4.30;;;25.50;96.90;;;;;;5012587;28;20460;-77
2022/07/23 08:07:05;;;;;;;6.10;3.37;;;25.50;96.30;;;;;;5012027;28;20493;-77
2022/07/23 08:09:34;;;;;;;5.63;3.20;;;25.40;95.80;;;;;;5011762;28;20525;-77
2022/07/23 08:12:01;;;;;;;5.63;3.27;;;25.40;96.40;;;;;;5012005;28;20501;-77
2022/07/23 08:14:32;;;;;;;6.80;3.77;;;25.50;96.50;;;;;;5010330;28;20874;-77
2022/07/23 08:16:59;;;;;;;4.37;3.40;;;25.60;96.40;;;;;;5011949;28;20483;-77
2022/07/23 08:19:27;;;;;;;4.90;3.20;;;25.70;95.90;;;;;;5011991;28;20687;-77
2022/07/23 08:21:54;;;;;;;5.50;3.50;;;25.80;95.40;;;;;;5011792;28;20689;-77
2022/07/23 08:24:21;;;;;;;5.73;3.67;;;25.90;95.40;;;;;;5011706;28;20480;-77
2022/07/23 08:26:48;;;;;;;5.80;3.60;;;26.00;95.00;;;;;;5011859;28;20531;-77
2022/07/23 08:29:16;;;;;;;7.50;3.37;;;26.00;94.90;;;;;;5011648;28;20547;-76
2022/07/23 08:31:46;;;;;;;6.80;4.00;;;26.10;95.90;;;;;;5011547;28;20456;-77
2022/07/23 08:34:13;;;;;;;5.30;3.27;;;26.20;96.40;;;;;;5011228;28;20471;-77
2022/07/23 08:36:42;;;;;;;8.20;3.13;;;26.30;96.00;;;;;;5011407;28;20691;-78
2022/07/23 08:39:09;;;;;;;9.20;3.87;;;26.40;95.40;;;;;;5010356;28;20495;-77
2022/07/23 08:41:36;;;;;;;5.87;3.70;;;26.50;95.50;;;;;;5011297;28;20459;-76
2022/07/23 08:44:03;;;;;;;5.53;3.23;;;26.50;94.40;;;;;;5011721;28;20650;-76
2022/07/23 08:46:31;;;;;;;6.20;3.43;;;26.50;93.90;;;;;;5011461;28;20831;-77
2022/07/23 08:49:00;;;;;;;5.50;3.47;;;26.50;94.80;;;;;;5011595;28;20455;-77
2022/07/23 08:51:28;;;;;;;4.40;2.90;;;26.40;93.50;;;;;;5010172;28;20471;-76
2022/07/23 08:53:58;;;;;;;6.43;3.43;;;26.10;94.20;;;;;;5011406;28;20459;-76
2022/07/23 08:56:25;;;;;;;5.23;3.00;;;25.80;94.90;;;;;;5011630;28;20487;-76
2022/07/23 08:58:55;;;;;;;5.40;3.30;;;25.60;95.00;;;;;;5011514;28;21000;-76
2022/07/23 09:01:22;;;;;;;4.80;3.27;;;25.60;96.50;;;;;;5011709;28;20486;-76
2022/07/23 09:03:49;;;;;;;4.90;3.40;;;25.60;97.00;;;;;;5011579;28;20466;-75
2022/07/23 09:06:17;;;;;;;5.00;3.17;;;25.50;96.20;;;;;;5011526;28;20456;-75
2022/07/23 09:08:46;;;;;;;4.97;3.53;;;25.50;96.10;;;;;;5012541;28;20447;-76
2022/07/23 09:11:16;;;;;;;5.97;3.40;;;25.40;97.90;;;;;;5015475;28;20463;-76
2022/07/23 09:13:47;;;;;;;5.00;3.03;;;25.70;97.40;;;;;;5015310;28;20892;-75
2022/07/23 09:16:16;;;;;;;6.73;3.60;;;26.00;96.80;;;;;;5015447;28;20462;-76
2022/07/23 09:18:46;;;;;;;6.80;4.23;;;26.30;94.80;;;;;;5015121;28;20479;-76
2022/07/23 09:21:28;;;;;;;4.37;3.33;;;26.50;95.20;;;;;;5015261;28;20554;-76
2022/07/23 09:23:57;;;;;;;6.90;3.63;;;26.70;95.80;;;;;;5015074;28;20513;-76
2022/07/23 09:26:31;;;;;;;5.50;3.17;;;27.00;93.80;;;;;;5015043;28;20468;-76
2022/07/23 09:29:02;;;;;;;3.90;3.07;;;27.30;92.50;;;;;;5015254;28;20876;-77
2022/07/23 09:31:34;;;;;;;5.93;3.20;;;27.40;90.90;;;;;;5014935;28;20467;-70
2022/07/23 09:34:13;;;;;;;5.50;3.37;;;27.40;93.30;;;;;;5015014;28;20521;-68
2022/07/23 09:36:42;;;;;;;8.60;3.87;;;27.50;92.40;;;;;;5014873;28;20463;-68
2022/07/23 09:39:10;;;;;;;7.90;3.97;;;27.30;92.40;;;;;;5014923;28;20491;-67
2022/07/23 09:41:40;;;;;;;5.10;3.40;;;27.30;91.90;;;;;;5014939;28;20460;-67
2022/07/23 09:44:13;;;;;;;7.73;3.40;;;27.40;92.50;;;;;;5014927;28;20506;-67
2022/07/23 09:46:41;;;;;;;6.10;3.90;;;27.80;91.60;;;;;;5014704;28;20470;-68
2022/07/23 09:49:20;;;;;;;5.33;3.27;;;27.90;90.90;;;;;;5014714;28;20454;-68
2022/07/23 09:51:51;;;;;;;5.07;3.27;;;28.10;90.80;;;;;;5014582;28;20459;-67
2022/07/23 09:54:28;;;;;;;6.40;3.80;;;28.30;90.30;;;;;;5014663;28;20534;-67
2022/07/23 09:56:56;;;;;;;5.83;3.10;;;28.40;89.20;;;;;;5014804;28;20459;-67
2022/07/23 09:59:26;;;;;;;9.03;3.30;;;28.60;89.60;;;;;;5013419;28;20491;-67
2022/07/23 10:01:56;;;;;;;6.10;3.47;;;28.70;87.60;;;;;;5014751;28;20517;-67
2022/07/23 10:04:24;;;;;;;7.63;4.20;;;28.80;88.60;;;;;;5013336;28;20459;-74
2022/07/23 10:06:56;;;;;;;4.97;2.87;;;28.60;87.50;;;;;;5013339;28;20459;-73
2022/07/23 10:09:26;;;;;;;4.73;3.17;;;28.70;87.30;;;;;;5014407;28;20456;-74
2022/07/23 10:12:00;;;;;;;6.20;3.53;;;28.90;87.20;;;;;;5013424;28;20475;-68
2022/07/23 10:14:31;;;;;;;6.20;3.60;;;28.90;86.50;;;;;;5014268;28;20651;-67
2022/07/23 10:16:58;;;;;;;5.80;3.30;;;29.00;87.30;;;;;;5014316;28;20819;-67
2022/07/23 10:19:26;;;;;;;6.40;2.97;;;29.10;87.10;;;;;;5012202;28;20582;-68
2022/07/23 10:21:59;;;;;;;5.97;3.60;;;29.20;87.20;;;;;;5013645;28;20472;-68
2022/07/23 10:24:39;;;;;;;6.20;3.80;;;29.40;86.20;;;;;;5014140;28;20460;-67
2022/07/23 10:27:32;;;;;;;7.20;3.70;;;29.40;86.20;;;;;;5013027;28;20467;-68
2022/07/23 10:30:06;;;;;;;7.57;3.80;;;29.50;86.60;;;;;;5013069;28;20459;-69
2022/07/23 10:32:44;;;;;;;6.00;3.20;;;29.50;84.90;;;;;;5013785;28;20474;-70
2022/07/23 10:35:19;;;;;;;5.77;3.07;;;29.50;83.80;;;;;;5013854;28;20896;-75
2022/07/23 10:37:52;;;;;;;4.50;3.10;;;29.50;82.30;;;;;;5013597;28;20494;-76
2022/07/23 10:40:23;;;;;;;5.53;3.23;;;29.40;83.60;;;;;;5013913;28;20463;-76
2022/07/23 10:42:53;;;;;;;6.03;3.47;;;29.40;84.10;;;;;;5013579;28;20468;-75
2022/07/23 10:45:27;;;;;;;5.90;3.17;;;29.50;84.40;;;;;;5013685;28;20462;-71
2022/07/23 10:47:55;;;;;;;5.10;3.10;;;29.50;83.00;;;;;;5013543;28;20706;-71
2022/07/23 10:50:24;;;;;;;5.00;3.10;;;29.50;81.40;;;;;;5012449;28;20475;-70
2022/07/23 10:53:15;;;;;;;4.70;3.03;;;29.50;80.90;;;;;;5012235;28;20467;-70
2022/07/23 10:55:53;;;;;;;5.27;3.00;;;29.40;83.30;;;;;;5013593;28;20487;-70
2022/07/23 10:58:22;;;;;;;5.43;3.40;;;29.40;81.60;;;;;;5013563;28;20579;-71
2022/07/23 11:00:50;;;;;;;3.90;2.77;;;29.60;81.50;;;;;;5013687;28;20463;-70
2022/07/23 11:03:36;;;;;;;5.70;3.67;;;29.70;81.90;;;;;;5013671;28;20454;-70
2022/07/23 11:06:04;;;;;;;5.50;3.17;;;29.70;80.00;;;;;;5013342;28;20530;-70
2022/07/23 11:08:36;;;;;;;6.00;3.60;;;29.40;79.70;;;;;;5013330;28;20695;-69
2022/07/23 11:11:11;;;;;;;5.20;3.37;;;29.30;81.40;;;;;;5013272;28;20459;-70
2022/07/23 11:13:43;;;;;;;3.97;3.00;;;29.40;81.50;;;;;;5013389;28;20517;-69
2022/07/23 11:16:15;;;;;;;4.03;3.33;;;29.20;82.00;;;;;;5013192;28;20497;-70
2022/07/23 11:19:07;;;;;;;4.77;2.90;;;29.30;82.50;;;;;;5013169;28;20487;-71
2022/07/23 11:22:02;;;;;;;4.50;2.93;;;29.40;82.90;;;;;;4998421;28;20525;-75
2022/07/23 11:24:30;;;;;;;5.53;3.60;;;29.70;81.90;;;;;;5012965;28;20456;-75
2022/07/23 11:27:00;;;;;;;5.33;3.63;;;29.90;82.10;;;;;;5012847;28;20482;-75
2022/07/23 11:29:52;;;;;;;4.23;2.80;;;30.00;79.00;;;;;;5012867;28;20478;-75
2022/07/23 11:32:24;;;;;;;5.43;3.00;;;30.00;78.80;;;;;;5011811;28;20455;-75
2022/07/23 11:34:53;;;;;;;5.50;3.07;;;29.90;80.20;;;;;;5012680;28;20459;-75
2022/07/23 11:37:34;;;;;;;6.20;3.03;;;30.10;81.20;;;;;;5012586;28;20463;-75
2022/07/23 11:40:04;;;;;;;3.70;2.77;;;30.50;80.20;;;;;;5012739;28;20586;-75
2022/07/23 11:42:32;;;;;;;4.50;2.83;;;30.70;77.70;;;;;;5012767;28;20459;-75
2022/07/23 11:44:59;;;;;;;4.70;3.23;;;30.60;78.10;;;;;;5012744;28;20521;-75
2022/07/23 11:47:27;;;;;;;5.37;3.03;;;30.50;78.20;;;;;;5012431;28;20950;-75
2022/07/23 11:49:56;;;;;;;4.90;3.23;;;30.40;78.70;;;;;;5012406;28;20463;-74
2022/07/23 11:52:24;;;;;;;7.07;3.83;;;30.40;78.70;;;;;;5012346;28;20455;-75
2022/07/23 11:54:53;;;;;;;7.07;4.30;;;30.40;78.70;;;;;;5012452;28;20466;-75
2022/07/23 11:57:26;;;;;;;6.00;3.30;;;30.50;79.80;;;;;;5011154;28;20471;-75
2022/07/23 11:59:57;;;;;;;6.00;2.90;;;30.80;78.10;;;;;;5012728;28;20494;-74
2022/07/23 12:02:25;;;;;;;4.13;2.80;;;30.90;78.20;;;;;;5012433;28;20455;-74
2022/07/23 12:04:54;;;;;;;5.73;3.60;;;31.10;78.30;;;;;;5012580;28;20460;-75
2022/07/23 12:07:31;;;;;;;4.03;2.77;;;31.10;77.40;;;;;;5012171;28;20471;-74
2022/07/23 12:10:00;;;;;;;6.20;3.63;;;31.00;76.10;;;;;;5012224;28;20605;-75
2022/07/23 12:12:35;;;;;;;5.53;3.47;;;31.00;76.00;;;;;;5012004;28;20466;-66
2022/07/23 12:15:03;;;;;;;4.20;2.77;;;31.10;76.20;;;;;;5012188;28;20491;-67
2022/07/23 12:17:32;;;;;;;4.90;3.30;;;31.10;77.40;;;;;;5011905;28;20456;-69
2022/07/23 12:20:01;;;;;;;4.80;3.57;;;31.20;77.70;;;;;;5011897;28;20494;-72
2022/07/23 12:22:36;;;;;;;5.00;3.17;;;31.10;77.90;;;;;;5011853;28;20470;-68
2022/07/23 12:25:06;;;;;;;5.50;3.60;;;31.20;76.10;;;;;;5011988;28;20562;-68
2022/07/23 12:27:38;;;;;;;4.87;3.00;;;31.20;77.30;;;;;;5011652;28;20813;-67
2022/07/23 12:30:25;;;;;;;6.23;3.40;;;31.20;76.30;;;;;;5011673;28;20455;-69
2022/07/23 12:32:54;;;;;;;5.93;3.33;;;31.20;77.80;;;;;;5011574;28;20466;-68
2022/07/23 12:35:22;;;;;;;4.77;3.17;;;31.40;76.60;;;;;;5011770;28;20977;-68
2022/07/23 12:37:52;;;;;;;6.87;3.33;;;31.50;75.70;;;;;;5011632;28;20455;-70
2022/07/23 12:40:25;;;;;;;5.40;3.50;;;31.60;76.40;;;;;;5011540;28;20523;-69
2022/07/23 12:42:56;;;;;;;5.43;3.20;;;31.70;77.70;;;;;;5012428;28;20526;-69
2022/07/23 12:45:24;;;;;;;5.13;2.90;;;31.80;75.60;;;;;;5012936;28;20463;-67
2022/07/23 12:48:06;;;;;;;5.40;3.30;;;32.00;74.90;;;;;;5011368;28;20513;-67
2022/07/23 12:50:39;;;;;;;6.07;3.53;;;32.00;75.40;;;;;;5012490;28;20467;-67
2022/07/23 12:53:10;;;;;;;8.70;3.73;;;32.10;76.20;;;;;;5012538;28;20451;-68
2022/07/23 12:55:38;;;;;;;4.57;3.20;;;32.30;75.50;;;;;;5012436;28;20470;-68
2022/07/23 12:58:12;;;;;;;4.97;3.03;;;32.30;75.20;;;;;;5012157;28;20499;-68
2022/07/23 13:01:06;;;;;;;4.53;3.00;;;32.30;75.00;;;;;;5014850;28;20912;-69